Time;durP1;ratioP1;P1;durP2;ratioP2;P2;SDS_P1;SDS_P2;PMS_P1;PMS_P2;Temp;Humidity;BMP_temperature;BMP_pressure;BME280_temperature;BME280_humidity;BME280_pressure;Samples;Min_cycle;Max_cycle;Signal;HPM_P1;HPM_P2
2022/09/10 00:00:46;;;;;;;0.28;0.28;;;22.50;73.70;;;;;;4160403;28;20479;-67
2022/09/10 00:03:27;;;;;;;0.00;0.00;;;22.50;73.70;;;;;;4160520;28;20048;-67
2022/09/10 00:06:11;;;;;;;0.00;0.00;;;22.50;73.70;;;;;;4176361;28;20101;-67
2022/09/10 00:08:52;;;;;;;0.00;0.00;;;22.50;73.70;;;;;;4172291;28;20205;-67
2022/09/10 00:11:33;;;;;;;0.10;0.10;;;22.50;73.80;;;;;;4158488;28;20542;-67
2022/09/10 00:14:18;;;;;;;1.25;1.25;;;22.50;73.80;;;;;;4159850;28;20057;-67
2022/09/10 00:16:58;;;;;;;0.00;0.00;;;22.50;73.80;;;;;;4159656;28;20057;-67
2022/09/10 00:19:39;;;;;;;0.05;0.05;;;22.50;73.70;;;;;;4159964;28;20052;-67
2022/09/10 00:22:22;;;;;;;0.00;0.00;;;22.50;73.80;;;;;;4151949;28;20127;-66
2022/09/10 00:25:02;;;;;;;0.00;0.00;;;22.50;73.70;;;;;;4143793;28;20068;-67
2022/09/10 00:27:48;;;;;;;0.00;0.00;;;22.50;73.80;;;;;;4159043;28;20056;-67
2022/09/10 00:30:29;;;;;;;0.00;0.00;;;22.50;73.90;;;;;;4158815;28;20112;-64
2022/09/10 00:33:10;;;;;;;;;;;22.40;73.80;;;;;;4159740;28;20064;-64
2022/09/10 00:35:51;;;;;;;1.50;1.40;;;22.40;73.70;;;;;;4159942;28;20339;-64
2022/09/10 00:38:33;;;;;;;0.00;0.00;;;22.50;73.80;;;;;;4166151;28;20148;-64
2022/09/10 00:41:15;;;;;;;0.00;0.00;;;22.40;73.80;;;;;;4174816;28;20055;-64
2022/09/10 00:43:56;;;;;;;;;;;22.40;73.80;;;;;;4160320;28;20056;-64
2022/09/10 00:46:42;;;;;;;0.00;0.00;;;22.40;73.80;;;;;;4160146;28;20030;-64
2022/09/10 00:49:27;;;;;;;4.75;2.17;;;22.40;73.90;;;;;;4159539;28;20056;-64
2022/09/10 00:52:11;;;;;;;0.00;0.00;;;22.40;73.90;;;;;;4174856;28;20514;-64
2022/09/10 00:54:54;;;;;;;0.00;0.00;;;22.40;74.00;;;;;;4173719;28;20060;-64
2022/09/10 00:57:35;;;;;;;0.00;0.00;;;22.40;74.00;;;;;;4175584;28;20052;-66
2022/09/10 01:00:16;;;;;;;2.67;1.33;;;22.40;74.00;;;;;;4176037;28;20048;-66
2022/09/10 01:02:58;;;;;;;0.00;0.00;;;22.40;74.00;;;;;;4176010;28;20063;-66
2022/09/10 01:05:41;;;;;;;0.00;0.00;;;22.40;74.20;;;;;;4174599;28;20113;-66
2022/09/10 01:08:22;;;;;;;0.00;0.00;;;22.40;74.10;;;;;;4159118;28;20049;-66
2022/09/10 01:11:15;;;;;;;0.00;0.00;;;22.40;74.10;;;;;;4175055;28;20060;-66
2022/09/10 01:14:14;;;;;;;0.10;0.10;;;22.40;74.10;;;;;;4175661;28;20052;-66
2022/09/10 01:17:03;;;;;;;0.00;0.00;;;22.30;74.10;;;;;;4176222;28;20610;-66
2022/09/10 01:20:27;;;;;;;0.00;0.00;;;22.30;74.10;;;;;;4174530;28;20134;-66
2022/09/10 01:24:00;;;;;;;0.00;0.00;;;22.40;74.20;;;;;;4174225;28;20052;-66
2022/09/10 01:27:14;;;;;;;0.00;0.00;;;22.30;74.20;;;;;;4165752;28;20056;-66
2022/09/10 01:30:03;;;;;;;2.55;1.75;;;22.30;74.20;;;;;;4174003;28;20064;-66
2022/09/10 01:33:04;;;;;;;0.40;0.40;;;22.30;74.20;;;;;;4175644;28;20195;-66
2022/09/10 01:35:53;;;;;;;0.10;0.10;;;22.30;74.20;;;;;;4173525;28;20052;-67
2022/09/10 01:38:37;;;;;;;0.65;0.65;;;22.30;74.20;;;;;;4174146;28;20141;-68
2022/09/10 01:41:23;;;;;;;0.00;0.00;;;22.30;74.20;;;;;;4174234;28;20047;-67
2022/09/10 01:44:09;;;;;;;0.05;0.05;;;22.30;74.30;;;;;;4174686;28;20130;-67
2022/09/10 01:47:07;;;;;;;0.07;0.07;;;22.30;74.30;;;;;;4162097;28;20059;-67
2022/09/10 01:50:03;;;;;;;0.00;0.00;;;22.30;74.30;;;;;;4173608;28;20785;-66
2022/09/10 01:52:57;;;;;;;0.00;0.00;;;22.30;74.30;;;;;;4173835;28;20055;-66
2022/09/10 01:55:49;;;;;;;0.00;0.00;;;22.30;74.40;;;;;;4158746;28;20130;-66
2022/09/10 01:58:34;;;;;;;0.03;0.03;;;22.30;74.40;;;;;;4157329;28;20392;-66
2022/09/10 02:01:44;;;;;;;0.10;0.10;;;22.30;74.40;;;;;;4174472;28;20048;-66
2022/09/10 02:04:28;;;;;;;0.00;0.00;;;22.30;74.40;;;;;;4157225;28;20631;-65
2022/09/10 02:07:12;;;;;;;0.13;0.13;;;22.30;74.40;;;;;;4156730;28;20106;-65
2022/09/10 02:09:56;;;;;;;0.08;0.08;;;22.30;74.50;;;;;;4157218;28;20166;-66
2022/09/10 02:12:39;;;;;;;0.00;0.00;;;22.30;74.50;;;;;;4168490;28;20406;-66
2022/09/10 02:15:56;;;;;;;0.00;0.00;;;22.30;74.50;;;;;;4174499;28;20086;-64
2022/09/10 02:18:41;;;;;;;0.00;0.00;;;22.30;74.60;;;;;;4156991;28;20567;-64
2022/09/10 02:21:23;;;;;;;0.13;0.13;;;22.30;74.70;;;;;;4156921;28;20048;-64
2022/09/10 02:24:07;;;;;;;0.00;0.00;;;22.30;74.80;;;;;;4173639;28;20056;-63
2022/09/10 02:26:48;;;;;;;0.15;0.15;;;22.30;74.80;;;;;;4173132;28;20068;-64
2022/09/10 02:29:30;;;;;;;0.10;0.10;;;22.30;74.80;;;;;;4170361;28;20064;-64
2022/09/10 02:32:12;;;;;;;0.00;0.00;;;22.30;74.80;;;;;;4146681;28;20123;-66
2022/09/10 02:34:52;;;;;;;0.00;0.00;;;22.30;74.80;;;;;;4158257;28;20135;-66
2022/09/10 02:37:35;;;;;;;0.00;0.00;;;22.20;74.80;;;;;;4157191;28;20456;-66
2022/09/10 02:40:18;;;;;;;0.00;0.00;;;22.30;74.90;;;;;;4173793;28;20060;-66
2022/09/10 02:42:59;;;;;;;0.35;0.35;;;22.20;75.80;;;;;;4170370;28;20067;-66
2022/09/10 02:45:41;;;;;;;1.00;1.00;;;22.20;74.90;;;;;;4157085;28;20134;-66
2022/09/10 02:48:22;;;;;;;0.00;0.00;;;22.20;74.90;;;;;;4158467;28;20404;-64
2022/09/10 02:51:03;;;;;;;;;;;22.20;74.90;;;;;;4145818;28;20048;-65
2022/09/10 02:53:45;;;;;;;0.00;0.00;;;22.20;74.90;;;;;;4180360;28;20264;-66
2022/09/10 02:56:27;;;;;;;0.75;0.75;;;22.20;74.90;;;;;;4173676;28;20459;-68
2022/09/10 02:59:11;;;;;;;0.00;0.00;;;22.20;75.00;;;;;;4173226;28;20090;-66
2022/09/10 03:01:52;;;;;;;0.00;0.00;;;22.20;74.90;;;;;;4174055;28;20558;-66
2022/09/10 03:04:34;;;;;;;0.15;0.15;;;22.20;75.00;;;;;;4177758;28;20048;-66
2022/09/10 03:07:18;;;;;;;;;;;22.20;75.10;;;;;;4176887;28;20545;-65
2022/09/10 03:10:01;;;;;;;0.00;0.00;;;22.20;75.10;;;;;;4177723;28;20389;-65
2022/09/10 03:12:42;;;;;;;0.00;0.00;;;22.10;75.00;;;;;;4164849;28;20047;-66
2022/09/10 03:15:24;;;;;;;0.00;0.00;;;22.20;75.10;;;;;;4176581;28;20047;-65
2022/09/10 03:18:05;;;;;;;0.00;0.00;;;22.20;76.10;;;;;;4176278;28;20052;-66
2022/09/10 03:20:48;;;;;;;1.23;0.63;;;22.10;75.10;;;;;;4175988;28;20479;-66
2022/09/10 03:23:29;;;;;;;0.00;0.00;;;22.20;75.20;;;;;;4176156;28;20136;-65
2022/09/10 03:26:12;;;;;;;0.00;0.00;;;22.20;75.20;;;;;;4176262;28;20163;-65
2022/09/10 03:28:54;;;;;;;0.00;0.00;;;22.20;75.20;;;;;;4160883;28;20052;-66
2022/09/10 03:31:38;;;;;;;0.13;0.13;;;22.20;75.20;;;;;;4167663;28;20052;-66
2022/09/10 03:34:19;;;;;;;0.05;0.05;;;22.20;75.30;;;;;;4159635;28;20421;-65
2022/09/10 03:37:00;;;;;;;;;;;22.20;75.30;;;;;;4159863;28;20048;-65
2022/09/10 03:39:41;;;;;;;0.00;0.00;;;22.20;75.30;;;;;;4160032;28;19931;-66
2022/09/10 03:42:23;;;;;;;0.15;0.15;;;22.20;76.20;;;;;;4143244;28;20353;-65
2022/09/10 03:45:06;;;;;;;0.17;0.17;;;22.20;75.40;;;;;;4147175;28;20405;-66
2022/09/10 03:47:47;;;;;;;0.00;0.00;;;22.20;75.40;;;;;;4159501;28;20095;-66
2022/09/10 03:50:30;;;;;;;0.03;0.03;;;22.10;75.30;;;;;;4161461;28;20051;-66
2022/09/10 03:53:11;;;;;;;0.00;0.00;;;22.10;75.40;;;;;;4175774;28;20377;-66
2022/09/10 03:55:54;;;;;;;0.00;0.00;;;22.10;75.40;;;;;;4177103;28;20052;-65
2022/09/10 03:58:36;;;;;;;0.50;0.50;;;22.10;75.50;;;;;;4159084;28;20057;-66
2022/09/10 04:01:17;;;;;;;0.00;0.00;;;22.10;75.40;;;;;;4159167;28;20059;-65
2022/09/10 04:04:01;;;;;;;0.13;0.13;;;22.10;75.40;;;;;;4158754;28;20372;-65
2022/09/10 04:06:43;;;;;;;0.00;0.00;;;22.10;75.50;;;;;;4164298;28;20060;-66
2022/09/10 04:09:25;;;;;;;0.00;0.00;;;22.10;75.50;;;;;;4186799;28;20137;-66
2022/09/10 04:12:06;;;;;;;0.22;0.17;;;22.10;75.50;;;;;;4175441;28;20407;-66
2022/09/10 04:14:49;;;;;;;1.92;1.77;;;22.10;75.50;;;;;;4157977;28;20076;-65
2022/09/10 04:17:30;;;;;;;0.00;0.00;;;22.10;75.50;;;;;;4158873;28;20084;-66
2022/09/10 04:20:11;;;;;;;0.98;0.98;;;22.10;76.40;;;;;;4153999;28;20115;-65
2022/09/10 04:22:55;;;;;;;0.10;0.10;;;22.10;75.60;;;;;;4158341;28;20060;-65
2022/09/10 04:25:36;;;;;;;0.10;0.10;;;22.10;75.60;;;;;;4157758;28;20056;-66
2022/09/10 04:28:18;;;;;;;;;;;22.10;75.60;;;;;;4158558;28;20614;-66
2022/09/10 04:31:02;;;;;;;0.00;0.00;;;22.10;75.60;;;;;;4162590;28;20303;-65
2022/09/10 04:33:43;;;;;;;0.00;0.00;;;22.10;75.60;;;;;;4176326;28;20194;-65
2022/09/10 04:36:24;;;;;;;0.00;0.00;;;22.10;75.60;;;;;;4175059;28;20060;-66
2022/09/10 04:39:06;;;;;;;0.00;0.00;;;22.10;75.70;;;;;;4174956;28;20117;-66
2022/09/10 04:41:47;;;;;;;0.00;0.00;;;22.10;75.70;;;;;;4159929;28;20131;-64
2022/09/10 04:44:31;;;;;;;0.00;0.00;;;22.00;75.80;;;;;;4158451;28;20045;-63
2022/09/10 04:47:15;;;;;;;0.00;0.00;;;22.10;75.80;;;;;;4158691;28;20053;-61
2022/09/10 04:49:57;;;;;;;0.08;0.08;;;22.10;76.30;;;;;;4158959;28;20060;-66
2022/09/10 04:52:38;;;;;;;0.22;0.22;;;22.10;76.50;;;;;;4174791;28;20095;-63
2022/09/10 04:55:20;;;;;;;0.20;0.20;;;22.20;76.40;;;;;;4158246;28;20533;-64
2022/09/10 04:58:01;;;;;;;0.10;0.10;;;22.10;76.30;;;;;;4159302;28;20454;-64
2022/09/10 05:00:42;;;;;;;0.00;0.00;;;22.10;76.10;;;;;;4143071;28;20068;-64
2022/09/10 05:03:24;;;;;;;0.00;0.00;;;22.10;76.00;;;;;;4158191;28;20134;-64
2022/09/10 05:06:07;;;;;;;0.00;0.00;;;22.10;75.90;;;;;;4156999;28;20132;-64
2022/09/10 05:08:48;;;;;;;0.00;0.00;;;22.10;75.80;;;;;;4135440;28;20135;-64
2022/09/10 05:11:30;;;;;;;1.08;1.08;;;22.10;75.80;;;;;;4157563;28;20200;-65
2022/09/10 05:14:11;;;;;;;0.00;0.00;;;22.10;75.80;;;;;;4158206;28;20052;-65
2022/09/10 05:16:52;;;;;;;0.25;0.25;;;22.10;75.70;;;;;;4158144;28;20064;-64
2022/09/10 05:19:35;;;;;;;1.35;1.00;;;22.10;75.70;;;;;;4142224;28;20056;-65
2022/09/10 05:22:20;;;;;;;0.00;0.00;;;22.10;75.70;;;;;;4173086;28;20052;-65
2022/09/10 05:25:02;;;;;;;0.10;0.10;;;22.10;75.70;;;;;;4174101;28;20099;-65
2022/09/10 05:27:43;;;;;;;0.50;0.50;;;22.10;75.70;;;;;;4167045;28;20056;-65
2022/09/10 05:30:31;;;;;;;0.57;0.52;;;22.10;75.70;;;;;;4157830;28;20061;-65
2022/09/10 05:33:13;;;;;;;0.10;0.10;;;22.00;75.70;;;;;;4157929;28;20056;-64
2022/09/10 05:35:55;;;;;;;0.00;0.00;;;22.00;75.60;;;;;;4141370;28;20065;-63
2022/09/10 05:38:36;;;;;;;0.38;0.38;;;22.00;75.60;;;;;;4160112;28;20055;-64
2022/09/10 05:41:20;;;;;;;0.10;0.10;;;22.00;75.70;;;;;;4173652;28;20056;-63
2022/09/10 05:44:02;;;;;;;0.43;0.43;;;22.00;75.60;;;;;;4170654;28;20073;-64
2022/09/10 05:46:43;;;;;;;1.17;0.25;;;22.00;76.40;;;;;;4158476;28;20395;-65
2022/09/10 05:49:29;;;;;;;0.10;0.10;;;22.00;75.70;;;;;;4173743;28;20557;-64
2022/09/10 05:52:11;;;;;;;0.00;0.00;;;22.00;75.70;;;;;;4173826;28;20059;-65
2022/09/10 05:54:53;;;;;;;0.20;0.20;;;22.00;75.70;;;;;;4173943;28;20039;-64
2022/09/10 05:57:34;;;;;;;1.98;1.58;;;22.00;75.70;;;;;;4172818;28;20514;-63
2022/09/10 06:00:15;;;;;;;0.00;0.00;;;22.00;75.80;;;;;;4173952;28;20056;-64
2022/09/10 06:03:06;;;;;;;0.00;0.00;;;22.00;75.60;;;;;;4173899;28;20146;-64
2022/09/10 06:05:54;;;;;;;0.00;0.00;;;22.00;75.60;;;;;;4173345;28;20067;-64
2022/09/10 06:08:42;;;;;;;0.00;0.00;;;22.00;75.60;;;;;;4173666;28;20048;-64
2022/09/10 06:11:32;;;;;;;0.00;0.00;;;22.00;75.60;;;;;;4173671;28;20067;-64
2022/09/10 06:14:14;;;;;;;0.20;0.20;;;22.00;75.60;;;;;;4175018;28;20052;-64
2022/09/10 06:16:55;;;;;;;0.00;0.00;;;22.00;75.50;;;;;;4172786;28;20056;-64
2022/09/10 06:19:38;;;;;;;0.70;0.70;;;22.00;76.40;;;;;;4173507;28;20048;-64
2022/09/10 06:22:20;;;;;;;0.13;0.13;;;22.00;76.50;;;;;;4173157;28;20499;-65
2022/09/10 06:25:06;;;;;;;0.40;0.40;;;21.90;75.50;;;;;;4166055;28;20103;-65
2022/09/10 06:27:48;;;;;;;0.00;0.00;;;21.90;75.50;;;;;;4153453;28;20071;-65
2022/09/10 06:30:30;;;;;;;0.10;0.10;;;21.90;75.50;;;;;;4157585;28;20117;-64
2022/09/10 06:33:12;;;;;;;0.00;0.00;;;21.90;75.60;;;;;;4156849;28;20056;-64
2022/09/10 06:35:53;;;;;;;0.32;0.32;;;21.90;75.50;;;;;;4174638;28;20118;-65
2022/09/10 06:38:36;;;;;;;0.00;0.00;;;21.90;75.50;;;;;;4171534;28;20064;-64
2022/09/10 06:41:20;;;;;;;0.05;0.05;;;21.90;75.60;;;;;;4173568;28;20118;-64
2022/09/10 06:44:07;;;;;;;0.00;0.00;;;21.90;75.60;;;;;;4184984;28;20348;-63
2022/09/10 06:46:50;;;;;;;0.10;0.10;;;21.90;75.50;;;;;;4157226;28;20570;-64
2022/09/10 06:49:51;;;;;;;0.10;0.10;;;21.90;75.50;;;;;;4171931;28;20186;-63
2022/09/10 06:52:34;;;;;;;0.90;0.47;;;21.90;75.50;;;;;;4157050;28;20098;-64
2022/09/10 06:55:17;;;;;;;0.57;0.57;;;21.90;75.50;;;;;;4157655;28;20603;-65
2022/09/10 06:58:01;;;;;;;0.00;0.00;;;21.90;75.50;;;;;;4173056;28;20610;-63
2022/09/10 07:00:42;;;;;;;0.30;0.30;;;21.90;75.50;;;;;;4172872;28;20056;-63
2022/09/10 07:03:23;;;;;;;1.65;0.85;;;21.90;75.50;;;;;;4172935;28;20194;-63
2022/09/10 07:06:06;;;;;;;0.00;0.00;;;21.90;75.60;;;;;;4172189;28;20060;-64
2022/09/10 07:08:48;;;;;;;0.00;0.00;;;21.90;75.50;;;;;;4172572;28;20067;-65
2022/09/10 07:11:29;;;;;;;0.00;0.00;;;21.90;75.50;;;;;;4174549;28;20513;-65
2022/09/10 07:14:13;;;;;;;0.10;0.10;;;21.90;75.50;;;;;;4173595;28;20060;-64
2022/09/10 07:16:55;;;;;;;0.00;0.00;;;21.90;75.50;;;;;;4167587;28;20072;-66
2022/09/10 07:19:39;;;;;;;0.40;0.40;;;21.90;75.60;;;;;;4157125;28;20065;-64
2022/09/10 07:22:38;;;;;;;1.13;1.13;;;21.90;75.50;;;;;;4156583;28;20401;-64
2022/09/10 07:25:23;;;;;;;0.10;0.10;;;21.90;75.50;;;;;;4158728;28;20097;-64
2022/09/10 07:28:16;;;;;;;0.52;0.52;;;21.90;75.60;;;;;;4171959;28;20610;-64
2022/09/10 07:31:00;;;;;;;0.00;0.00;;;21.90;75.50;;;;;;4171165;28;20411;-64
2022/09/10 07:33:43;;;;;;;0.00;0.00;;;21.90;75.60;;;;;;4144957;28;20547;-64
2022/09/10 07:36:24;;;;;;;0.05;0.05;;;21.90;75.50;;;;;;4156064;28;20381;-63
2022/09/10 07:39:05;;;;;;;0.20;0.20;;;21.90;76.40;;;;;;4171445;28;20044;-63
2022/09/10 07:41:48;;;;;;;0.10;0.10;;;21.90;75.60;;;;;;4173832;28;20175;-63
2022/09/10 07:44:31;;;;;;;0.00;0.00;;;21.90;75.60;;;;;;4173012;28;20118;-63
2022/09/10 07:47:15;;;;;;;0.00;0.00;;;21.90;75.60;;;;;;4140286;28;20052;-64
2022/09/10 07:49:57;;;;;;;0.00;0.00;;;21.90;75.70;;;;;;4158777;28;20061;-63
2022/09/10 07:52:38;;;;;;;0.32;0.32;;;21.90;75.60;;;;;;4159804;28;20095;-63
2022/09/10 07:55:20;;;;;;;0.90;0.80;;;21.90;75.60;;;;;;4158806;28;20515;-63
2022/09/10 07:58:01;;;;;;;0.30;0.30;;;21.90;75.60;;;;;;4167844;28;20083;-65
2022/09/10 08:00:43;;;;;;;0.10;0.10;;;21.90;75.70;;;;;;4166340;28;20180;-66
2022/09/10 08:03:26;;;;;;;0.10;0.10;;;21.90;75.60;;;;;;4167434;28;20053;-65
2022/09/10 08:06:09;;;;;;;0.35;0.35;;;21.90;75.70;;;;;;4179320;28;20055;-65
2022/09/10 08:08:52;;;;;;;0.10;0.10;;;21.90;75.80;;;;;;4179237;28;20565;-66
2022/09/10 08:11:33;;;;;;;0.00;0.00;;;21.90;75.80;;;;;;4179253;28;20090;-65
2022/09/10 08:14:15;;;;;;;0.13;0.13;;;21.90;75.80;;;;;;4162365;28;20048;-65
2022/09/10 08:17:01;;;;;;;0.22;0.22;;;21.90;75.80;;;;;;4165443;28;20267;-65
2022/09/10 08:19:43;;;;;;;0.47;0.47;;;21.90;75.80;;;;;;4164423;28;20064;-64
2022/09/10 08:22:25;;;;;;;0.25;0.25;;;21.90;75.80;;;;;;4179062;28;20190;-64
2022/09/10 08:25:09;;;;;;;0.00;0.00;;;21.90;75.80;;;;;;4179328;28;20173;-65
2022/09/10 08:27:51;;;;;;;0.20;0.20;;;21.90;75.90;;;;;;4167241;28;20145;-64
2022/09/10 08:30:32;;;;;;;1.15;1.08;;;21.90;75.80;;;;;;4190315;28;20221;-65
2022/09/10 08:33:13;;;;;;;1.02;0.45;;;21.90;75.80;;;;;;4178809;28;20059;-65
2022/09/10 08:35:57;;;;;;;0.40;0.25;;;21.90;75.80;;;;;;4178644;28;20067;-66
2022/09/10 08:38:39;;;;;;;0.10;0.10;;;21.90;75.80;;;;;;4158596;28;20460;-66
2022/09/10 08:41:31;;;;;;;0.50;0.50;;;21.90;75.80;;;;;;4147573;28;20056;-66
2022/09/10 08:44:20;;;;;;;0.25;0.25;;;21.90;75.90;;;;;;4174810;28;20064;-65
2022/09/10 08:47:07;;;;;;;0.00;0.00;;;21.90;75.90;;;;;;4161386;28;20048;-65
2022/09/10 08:49:52;;;;;;;0.10;0.10;;;21.90;75.90;;;;;;4158965;28;20107;-65
2022/09/10 08:52:40;;;;;;;0.13;0.13;;;21.90;75.90;;;;;;4169010;28;20100;-65
2022/09/10 08:55:32;;;;;;;0.00;0.00;;;21.90;75.80;;;;;;4130731;28;20451;-66
2022/09/10 08:58:17;;;;;;;0.00;0.00;;;21.90;75.90;;;;;;4152408;28;20060;-65
2022/09/10 09:01:03;;;;;;;1.17;0.85;;;21.90;75.80;;;;;;4163678;28;20122;-65
2022/09/10 09:03:47;;;;;;;0.10;0.10;;;21.90;75.80;;;;;;4164803;28;20126;-65
2022/09/10 09:06:35;;;;;;;0.47;0.47;;;21.90;75.80;;;;;;4161902;28;20091;-66
2022/09/10 09:09:20;;;;;;;0.10;0.10;;;21.90;75.90;;;;;;4161815;28;20068;-65
2022/09/10 09:12:15;;;;;;;0.17;0.17;;;22.00;76.90;;;;;;4161721;28;20060;-65
2022/09/10 09:15:07;;;;;;;0.60;0.57;;;21.90;75.80;;;;;;4157991;28;20048;-65
2022/09/10 09:18:03;;;;;;;0.00;0.00;;;21.90;75.80;;;;;;4156996;28;20127;-64
2022/09/10 09:20:46;;;;;;;0.47;0.47;;;21.90;75.80;;;;;;4144626;28;20099;-65
2022/09/10 09:23:38;;;;;;;0.10;0.10;;;21.90;75.70;;;;;;4148039;28;20052;-65
2022/09/10 09:26:45;;;;;;;0.75;0.10;;;22.00;75.80;;;;;;4145131;28;20065;-65
2022/09/10 09:29:31;;;;;;;0.05;0.05;;;21.90;75.70;;;;;;4144689;28;20065;-65
2022/09/10 09:32:17;;;;;;;0.00;0.00;;;22.00;75.80;;;;;;4144874;28;20131;-64
2022/09/10 09:35:09;;;;;;;0.30;0.30;;;21.90;75.70;;;;;;4132826;28;20053;-65
2022/09/10 09:37:53;;;;;;;0.00;0.00;;;21.90;75.80;;;;;;4144988;28;20052;-65
2022/09/10 09:40:43;;;;;;;0.20;0.20;;;22.00;75.80;;;;;;4145287;28;20831;-65
2022/09/10 09:43:49;;;;;;;0.32;0.32;;;21.90;75.80;;;;;;4166578;28;20580;-65
2022/09/10 09:46:33;;;;;;;0.20;0.20;;;21.90;75.80;;;;;;4173923;28;20280;-65
2022/09/10 09:49:17;;;;;;;1.05;0.95;;;22.00;75.80;;;;;;4173656;28;20178;-64
2022/09/10 09:51:58;;;;;;;;;;;22.00;75.90;;;;;;4173213;28;20121;-65
2022/09/10 09:54:49;;;;;;;0.25;0.25;;;21.90;75.80;;;;;;4175531;28;19928;-65
2022/09/10 09:58:12;;;;;;;0.60;0.60;;;21.90;75.80;;;;;;4174842;28;20455;-65
2022/09/10 10:01:07;;;;;;;0.00;0.00;;;21.90;75.80;;;;;;4173733;28;20062;-65
2022/09/10 10:03:51;;;;;;;0.13;0.13;;;21.90;75.80;;;;;;4174640;28;20063;-65
2022/09/10 10:06:33;;;;;;;0.47;0.47;;;21.90;75.90;;;;;;4173984;28;20415;-65
2022/09/10 10:09:20;;;;;;;0.00;0.00;;;21.90;75.90;;;;;;4175025;28;20502;-66
2022/09/10 10:12:04;;;;;;;0.28;0.28;;;21.90;75.90;;;;;;4171966;28;20059;-65
2022/09/10 10:14:45;;;;;;;0.13;0.13;;;21.90;75.90;;;;;;4161932;28;20055;-66
2022/09/10 10:17:39;;;;;;;0.00;0.00;;;21.90;75.80;;;;;;4174838;28;20094;-66
2022/09/10 10:20:36;;;;;;;0.28;0.28;;;22.00;76.00;;;;;;4171414;28;20182;-66
2022/09/10 10:23:35;;;;;;;0.10;0.10;;;22.00;76.20;;;;;;4173624;28;20097;-64
2022/09/10 10:26:22;;;;;;;0.20;0.20;;;22.00;76.60;;;;;;4174463;28;20120;-64
2022/09/10 10:29:05;;;;;;;0.10;0.10;;;22.00;76.50;;;;;;4174151;28;20094;-64
2022/09/10 10:31:49;;;;;;;0.52;0.52;;;22.00;76.30;;;;;;4168363;28;20084;-64
2022/09/10 10:34:54;;;;;;;0.10;0.10;;;22.00;76.20;;;;;;4158321;28;20049;-64
2022/09/10 10:37:47;;;;;;;0.40;0.40;;;22.00;76.40;;;;;;4141621;28;20132;-64
2022/09/10 10:40:33;;;;;;;0.10;0.10;;;22.00;76.40;;;;;;4166903;28;20072;-64
2022/09/10 10:43:24;;;;;;;0.57;0.57;;;22.00;76.30;;;;;;4174625;28;20059;-64
2022/09/10 10:46:12;;;;;;;0.10;0.10;;;22.00;76.40;;;;;;4174460;28;20060;-64
2022/09/10 10:49:09;;;;;;;0.10;0.10;;;22.00;76.40;;;;;;4174580;28;20151;-64
2022/09/10 10:52:00;;;;;;;0.00;0.00;;;22.00;76.50;;;;;;4157621;28;20636;-64
2022/09/10 10:54:59;;;;;;;1.15;1.15;;;22.00;76.40;;;;;;4157858;28;20068;-64
2022/09/10 10:57:57;;;;;;;0.00;0.00;;;22.00;76.40;;;;;;4157282;28;20048;-64
2022/09/10 11:00:42;;;;;;;0.00;0.00;;;22.00;76.30;;;;;;4160977;28;20052;-63
2022/09/10 11:03:28;;;;;;;0.20;0.20;;;22.00;76.40;;;;;;4174225;28;20107;-64
2022/09/10 11:06:13;;;;;;;3.20;0.95;;;22.10;76.50;;;;;;4174737;28;20183;-63
2022/09/10 11:09:01;;;;;;;0.13;0.13;;;22.10;76.40;;;;;;4174110;28;20149;-64
2022/09/10 11:11:52;;;;;;;0.00;0.00;;;22.10;76.30;;;;;;4173822;28;20060;-63
2022/09/10 11:14:40;;;;;;;0.00;0.00;;;22.10;76.80;;;;;;4164429;28;20044;-64
2022/09/10 11:17:29;;;;;;;0.88;0.80;;;22.10;76.20;;;;;;4177673;28;20161;-64
2022/09/10 11:20:17;;;;;;;0.00;0.00;;;22.10;76.10;;;;;;4173419;28;20064;-64
2022/09/10 11:23:19;;;;;;;0.00;0.00;;;22.10;76.10;;;;;;4176308;28;20057;-63
2022/09/10 11:26:06;;;;;;;0.00;0.00;;;22.10;76.00;;;;;;4180022;28;20055;-63
2022/09/10 11:28:54;;;;;;;0.10;0.10;;;22.10;76.00;;;;;;4177811;28;20115;-64
2022/09/10 11:31:41;;;;;;;0.38;0.38;;;22.10;76.10;;;;;;4182237;28;20056;-64
2022/09/10 11:34:30;;;;;;;0.00;0.00;;;22.10;76.00;;;;;;4143961;28;20175;-63
2022/09/10 11:37:17;;;;;;;0.00;0.00;;;22.10;76.10;;;;;;4166649;28;20048;-63
2022/09/10 11:40:04;;;;;;;0.00;0.00;;;22.10;76.00;;;;;;4176271;28;20576;-63
2022/09/10 11:42:51;;;;;;;0.08;0.08;;;22.20;76.00;;;;;;4176564;28;20685;-63
2022/09/10 11:45:40;;;;;;;0.00;0.00;;;22.20;75.90;;;;;;4176489;28;20056;-63
2022/09/10 11:48:27;;;;;;;0.00;0.00;;;22.20;75.70;;;;;;4176824;28;20083;-64
2022/09/10 11:51:16;;;;;;;1.55;0.38;;;22.20;75.60;;;;;;4176768;28;20052;-65
2022/09/10 11:53:57;;;;;;;0.65;0.65;;;22.30;75.60;;;;;;4176848;28;20153;-64
2022/09/10 11:56:52;;;;;;;0.10;0.10;;;22.30;75.60;;;;;;4159524;28;20048;-64
2022/09/10 12:00:05;;;;;;;0.00;0.00;;;22.30;75.50;;;;;;4160119;28;20542;-63
2022/09/10 12:03:20;;;;;;;0.20;0.20;;;22.40;75.40;;;;;;4160226;28;20188;-63
2022/09/10 12:06:06;;;;;;;0.85;0.55;;;22.40;75.20;;;;;;4160241;28;20091;-63
2022/09/10 12:09:05;;;;;;;0.52;0.52;;;22.40;75.10;;;;;;4160496;28;20111;-63
2022/09/10 12:11:57;;;;;;;0.00;0.00;;;22.40;74.80;;;;;;4159834;28;20215;-64
2022/09/10 12:14:39;;;;;;;0.00;0.00;;;22.40;74.60;;;;;;4170844;28;20052;-63
2022/09/10 12:17:28;;;;;;;0.00;0.00;;;22.50;74.70;;;;;;4175117;28;20052;-63
2022/09/10 12:20:17;;;;;;;0.52;0.52;;;22.50;74.60;;;;;;4176615;28;20423;-63
2022/09/10 12:22:59;;;;;;;0.00;0.00;;;22.50;74.50;;;;;;4176059;28;20059;-63
2022/09/10 12:25:40;;;;;;;0.08;0.08;;;22.50;74.40;;;;;;4175193;28;20080;-64
2022/09/10 12:28:54;;;;;;;0.00;0.00;;;22.60;74.30;;;;;;4176265;28;20190;-63
2022/09/10 12:32:16;;;;;;;0.00;0.00;;;22.60;74.40;;;;;;4176149;28;20052;-64
2022/09/10 12:35:43;;;;;;;0.35;0.20;;;22.60;74.30;;;;;;4173171;28;20064;-63
2022/09/10 12:39:15;;;;;;;0.00;0.00;;;22.70;74.10;;;;;;4176506;28;20644;-63
2022/09/10 12:41:59;;;;;;;1.10;1.10;;;22.70;73.80;;;;;;4108766;28;20485;-63
2022/09/10 12:44:46;;;;;;;0.82;0.82;;;22.80;73.90;;;;;;4097783;28;20054;-63
2022/09/10 12:47:43;;;;;;;0.38;0.38;;;22.80;73.80;;;;;;4162219;28;20183;-63
2022/09/10 12:50:49;;;;;;;0.17;0.17;;;22.70;73.80;;;;;;4159274;28;20135;-63
2022/09/10 12:54:10;;;;;;;0.00;0.00;;;22.80;73.80;;;;;;4159255;28;20562;-63
2022/09/10 12:57:11;;;;;;;0.08;0.08;;;22.80;73.90;;;;;;4159047;28;20377;-63
2022/09/10 13:00:12;;;;;;;0.00;0.00;;;22.80;73.90;;;;;;4175906;28;20099;-63
2022/09/10 13:02:58;;;;;;;0.00;0.00;;;22.80;74.00;;;;;;4175967;28;20064;-63
2022/09/10 13:05:50;;;;;;;0.15;0.15;;;22.80;74.00;;;;;;4167386;28;20048;-63
2022/09/10 13:08:33;;;;;;;0.00;0.00;;;22.80;74.00;;;;;;4157731;28;20357;-64
2022/09/10 13:11:19;;;;;;;0.00;0.00;;;22.70;73.90;;;;;;4156569;28;20080;-64
2022/09/10 13:14:05;;;;;;;0.00;0.00;;;22.70;73.90;;;;;;4159296;28;20146;-63
2022/09/10 13:16:46;;;;;;;0.00;0.00;;;22.80;73.90;;;;;;4157860;28;20435;-64
2022/09/10 13:19:51;;;;;;;3.22;0.68;;;22.80;73.80;;;;;;4157745;28;20052;-64
2022/09/10 13:22:57;;;;;;;0.10;0.10;;;22.80;73.70;;;;;;4158724;28;20091;-64
2022/09/10 13:25:41;;;;;;;0.47;0.47;;;22.80;73.70;;;;;;4150200;28;20452;-63
2022/09/10 13:29:03;;;;;;;0.00;0.00;;;22.90;73.60;;;;;;4157330;28;20068;-63
2022/09/10 13:31:46;;;;;;;0.00;0.00;;;22.90;73.50;;;;;;4158329;28;20409;-64
2022/09/10 13:34:57;;;;;;;0.10;0.10;;;22.80;73.30;;;;;;4158364;28;20111;-65
2022/09/10 13:38:00;;;;;;;0.00;0.00;;;22.90;73.30;;;;;;4158694;28;20068;-64
2022/09/10 13:41:32;;;;;;;0.50;0.50;;;22.90;73.90;;;;;;4159477;28;20056;-63
2022/09/10 13:44:20;;;;;;;;;;;22.80;73.10;;;;;;4107398;28;20180;-64
2022/09/10 13:47:09;;;;;;;0.20;0.20;;;22.80;72.60;;;;;;4140062;28;20000;-63
2022/09/10 13:49:56;;;;;;;0.08;0.08;;;22.80;72.80;;;;;;4142136;28;20057;-63
2022/09/10 13:52:39;;;;;;;0.00;0.00;;;22.80;73.00;;;;;;4141680;28;20151;-63
2022/09/10 13:55:24;;;;;;;0.20;0.20;;;22.80;72.80;;;;;;4148488;28;20049;-64
2022/09/10 13:58:13;;;;;;;0.00;0.00;;;22.80;72.80;;;;;;4173731;28;20091;-62
2022/09/10 14:00:59;;;;;;;0.20;0.20;;;22.80;72.50;;;;;;4174853;28;20059;-63
2022/09/10 14:03:40;;;;;;;0.00;0.00;;;22.80;72.50;;;;;;4174731;28;20056;-63
2022/09/10 14:06:23;;;;;;;0.00;0.00;;;22.80;72.50;;;;;;4158583;28;20156;-63
2022/09/10 14:09:08;;;;;;;0.00;0.00;;;22.80;72.50;;;;;;4158096;28;20522;-64
2022/09/10 14:11:50;;;;;;;0.00;0.00;;;22.80;72.50;;;;;;4171913;28;20040;-64
2022/09/10 14:14:37;;;;;;;0.20;0.20;;;22.80;72.30;;;;;;4171639;28;20118;-64
2022/09/10 14:17:24;;;;;;;0.00;0.00;;;22.80;72.30;;;;;;4173525;28;20071;-64
2022/09/10 14:20:22;;;;;;;0.00;0.00;;;22.80;72.30;;;;;;4174361;28;20525;-64
2022/09/10 14:23:05;;;;;;;1.30;0.68;;;22.80;72.10;;;;;;4173425;28;20064;-63
2022/09/10 14:25:46;;;;;;;0.00;0.00;;;22.80;72.20;;;;;;4174583;28;20063;-63
2022/09/10 14:28:27;;;;;;;0.00;0.00;;;22.80;72.30;;;;;;4174679;28;20115;-63
2022/09/10 14:31:20;;;;;;;0.10;0.10;;;22.90;72.10;;;;;;4174987;28;20048;-64